ISO Group Logo
Defense and Aerospace
Supply Chain Partner


ISO Group supports National Stock Numbers (NSN) relating to 1680-14-370-4157 - 1680143760372 and spare parts logistics for Miscellaneous Aircraft Accessories and Components. 1680-14-370-4157 - 1680143760372 Request Quotes. Buy Online.


1680-14-370-4157 - 1680143760372

  • 1680-14-370-4157 1680143704157, 1680-14-370-4157 - CEINTURE DE SECURIT - 1680143704157
  • 1680-14-370-4158 1680143704158, 1680-14-370-4158 - CEINTURE DE SECURIT - 1680143704158
  • 1680-14-370-6126 1680143706126, 1680-14-370-6126 - TIGE,BOITE RESSORT - 1680143706126
  • 1680-14-370-6148 1680143706148, 1680-14-370-6148 - CROISILLON,JOINT UN - 1680143706148
  • 1680-14-370-6303 1680143706303, 1680-14-370-6303 - LEVIER,COMMANDE A M - 1680143706303
  • 1680-14-370-6329 1680143706329, 1680-14-370-6329 - SUPPORT,PION CENTRA - 1680143706329
  • 1680-14-370-8508 1680143708508, 1680-14-370-8508 - TETE DE VERIN - 1680143708508
  • 1680-14-370-8514 1680143708514, 1680-14-370-8514 - ACTIONNEUR,ELECTROM - 1680143708514
  • 1680-14-370-8515 1680143708515, 1680-14-370-8515 - ACTIONNEUR,ELECTROM - 1680143708515
  • 1680-14-370-8577 1680143708577, 1680-14-370-8577 - NO ITEM NAME AVAILABLE - 1680143708577
  • 1680-14-370-8593 1680143708593, 1680-14-370-8593 - ACTUATOR YAW TRIM - 1680143708593
  • 1680-14-370-8594 1680143708594, 1680-14-370-8594 - ACTUATOR ROLL TRIM - 1680143708594
  • 1680-14-370-8595 1680143708595, 1680-14-370-8595 - TABLEAU,CDE,TRIM - 1680143708595
  • 1680-14-370-8596 1680143708596, 1680-14-370-8596 - SYSTEM REACT - 1680143708596
  • 1680-14-370-8597 1680143708597, 1680-14-370-8597 - ANGLE DRIVER - 1680143708597
  • 1680-14-370-8598 1680143708598, 1680-14-370-8598 - BELL CRANK - 1680143708598
  • 1680-14-370-8599 1680143708599, 1680-14-370-8599 - TABLEA,CDE,BEC,VOLE - 1680143708599
  • 1680-14-370-8607 1680143708607, 1680-14-370-8607 - BOX CRANK MANUAL AN - 1680143708607
  • 1680-14-370-8608 1680143708608, 1680-14-370-8608 - AUTRE INTERROGATION - 1680143708608
  • 1680-14-370-8609 1680143708609, 1680-14-370-8609 - MOTO-REDUCTEUR - 1680143708609
  • 1680-14-370-8610 1680143708610, 1680-14-370-8610 - MOTO-REDUCTEUR - 1680143708610
  • 1680-14-370-8611 1680143708611, 1680-14-370-8611 - ACTUATOR LEAD EDGE - 1680143708611
  • 1680-14-370-8612 1680143708612, 1680-14-370-8612 - ACTUATOR LEAD EDGE - 1680143708612
  • 1680-14-370-8613 1680143708613, 1680-14-370-8613 - ACTUATOR LEAD EDGE - 1680143708613
  • 1680-14-370-8614 1680143708614, 1680-14-370-8614 - CYLINDER ASSEMBLY,ACTUATING,LINEAR - 1680143708614
  • 1680-14-370-8615 1680143708615, 1680-14-370-8615 - CYLINDER,PNEUMATIC - 1680143708615
  • 1680-14-370-8616 1680143708616, 1680-14-370-8616 - VERIN,AMORTISSEUR - 1680143708616
  • 1680-14-370-8617 1680143708617, 1680-14-370-8617 - ACTUATOR CUSHION - 1680143708617
  • 1680-14-370-8618 1680143708618, 1680-14-370-8618 - VERIN,AMORTISSEUR - 1680143708618
  • 1680-14-370-8619 1680143708619, 1680-14-370-8619 - VERIN,AMORTISSEUR - 1680143708619
  • 1680-14-370-8620 1680143708620, 1680-14-370-8620 - ACTUATOR CUSHION - 1680143708620
  • 1680-14-370-8621 1680143708621, 1680-14-370-8621 - ACTUATOR CUSHION - 1680143708621
  • 1680-14-370-8852 1680143708852, 1680-14-370-8852 - SUPPORT ACCESSOIRES - 1680143708852
  • 1680-14-370-8899 1680143708899, 1680-14-370-8899 - TROMPE DEJECTION - 1680143708899
  • 1680-14-370-8980 1680143708980, 1680-14-370-8980 - MANCHE,AERONEF - 1680143708980
  • 1680-14-370-8981 1680143708981, 1680-14-370-8981 - BOITIER,CDE VOL - 1680143708981
  • 1680-14-370-8985 1680143708985, 1680-14-370-8985 - SUPPORT - 1680143708985
  • 1680-14-370-9054 1680143709054, 1680-14-370-9054 - POIGNEE EQUIPEE,MAN - 1680143709054
  • 1680-14-370-9058 1680143709058, 1680-14-370-9058 - ENS FLOTTABIL SECOU - 1680143709058
  • 1680-14-370-9174 1680143709174, 1680-14-370-9174 - LEVIER COUDE - 1680143709174
  • 1680-14-370-9181 1680143709181, 1680-14-370-9181 - SUPPORT,LEVIER CDE - 1680143709181
  • 1680-14-370-9204 1680143709204, 1680-14-370-9204 - BELLCRANK,ROLL VAR - 1680143709204
  • 1680-14-370-9205 1680143709205, 1680-14-370-9205 - GUIGNOL,VARIABLE - 1680143709205
  • 1680-14-370-9206 1680143709206, 1680-14-370-9206 - BELLCRANK PITCH VAR - 1680143709206
  • 1680-14-370-9207 1680143709207, 1680-14-370-9207 - TABLEAU,CDE,BEC,VOL - 1680143709207
  • 1680-14-370-9208 1680143709208, 1680-14-370-9208 - TABLEAU,CDE,BEC,VOL - 1680143709208
  • 1680-14-370-9215 1680143709215, 1680-14-370-9215 - ACTIONNEUR,ELECTROM - 1680143709215
  • 1680-14-370-9216 1680143709216, 1680-14-370-9216 - ACTIONNEUR,ELECTROM - 1680143709216
  • 1680-14-370-9218 1680143709218, 1680-14-370-9218 - VALVE,LINEAR,DIRECTIONAL CONTROL - 1680143709218
  • 1680-14-370-9247 1680143709247, 1680-14-370-9247 - SWITCH - 1680143709247
  • 1680-14-370-9251 1680143709251, 1680-14-370-9251 - ACTUATOR,ELECTRO-MECHANICAL,ROTARY - 1680143709251
  • 1680-14-370-9252 1680143709252, 1680-14-370-9252 - ACTIONNEUR,ELECTROM - 1680143709252
  • 1680-14-370-9253 1680143709253, 1680-14-370-9253 - ACTIONNEUR,ELECTROM - 1680143709253
  • 1680-14-370-9261 1680143709261, 1680-14-370-9261 - COCK,PLUG - 1680143709261
  • 1680-14-370-9264 1680143709264, 1680-14-370-9264 - COCK,PLUG - 1680143709264
  • 1680-14-370-9266 1680143709266, 1680-14-370-9266 - ROBINET,A TOURNANT - 1680143709266
  • 1680-14-370-9267 1680143709267, 1680-14-370-9267 - ROBINET,A TOURNANT - 1680143709267
  • 1680-14-370-9523 1680143709523, 1680-14-370-9523 - RELAIS DACCESSOIRES - 1680143709523
  • 1680-14-370-9675 1680143709675, 1680-14-370-9675 - TABLEAU,INDICATEUR - 1680143709675
  • 1680-14-370-9708 1680143709708, 1680-14-370-9708 - VOLET DE SECURITE - 1680143709708
  • 1680-14-370-9992 1680143709992, 1680-14-370-9992 - CENDRIER - 1680143709992
  • 1680-14-371-1365 1680143711365, 1680-14-371-1365 - SUPPORT,CDE FREINAG - 1680143711365
  • 1680-14-371-1398 1680143711398, 1680-14-371-1398 - LEVIER COUDE - 1680143711398
  • 1680-14-371-1408 1680143711408, 1680-14-371-1408 - BUTEE,GUIGNOL VARIA - 1680143711408
  • 1680-14-371-1472 1680143711472, 1680-14-371-1472 - ECLISSE SUPPORT POU - 1680143711472
  • 1680-14-371-1486 1680143711486, 1680-14-371-1486 - ARBRE DE CONJUGAISO - 1680143711486
  • 1680-14-371-1542 1680143711542, 1680-14-371-1542 - LEVIER COUDE - 1680143711542
  • 1680-14-371-1554 1680143711554, 1680-14-371-1554 - SUPPORT DE GALET - 1680143711554
  • 1680-14-371-1604 1680143711604, 1680-14-371-1604 - BOITIER COMMAND ASS - 1680143711604
  • 1680-14-371-1611 1680143711611, 1680-14-371-1611 - PALIER-SUPPORT,COMM - 1680143711611
  • 1680-14-371-3737 1680143713737, 1680-14-371-3737 - TAPIS,DE SOL - 1680143713737
  • 1680-14-371-5297 1680143715297, 1680-14-371-5297 - LEVIER,COMMANDE A D - 1680143715297
  • 1680-14-371-5340 1680143715340, 1680-14-371-5340 - SUPPORT SOUDE - 1680143715340
  • 1680-14-371-5341 1680143715341, 1680-14-371-5341 - ARBR SUPP,LEVIERS - 1680143715341
  • 1680-14-371-5342 1680143715342, 1680-14-371-5342 - SUPPORT,CASQU RADIO - 1680143715342
  • 1680-14-371-5366 1680143715366, 1680-14-371-5366 - CONTROL,UNIT TANGEN - 1680143715366
  • 1680-14-371-5369 1680143715369, 1680-14-371-5369 - PLAQUE,PEDALE DIREC - 1680143715369
  • 1680-14-371-5395 1680143715395, 1680-14-371-5395 - BOITE DISTRIBUTION - 1680143715395
  • 1680-14-371-5401 1680143715401, 1680-14-371-5401 - COMMANDE POUSSER/TI - 1680143715401
  • 1680-14-371-5418 1680143715418, 1680-14-371-5418 - SUPPORT CDE VOL LAC - 1680143715418
  • 1680-14-371-5426 1680143715426, 1680-14-371-5426 - COUVERCLE D'ACCES - 1680143715426
  • 1680-14-371-5442 1680143715442, 1680-14-371-5442 - SUPPORT CDE VOL LAC - 1680143715442
  • 1680-14-371-5443 1680143715443, 1680-14-371-5443 - SUPPORT CDE VOL LAC - 1680143715443
  • 1680-14-371-5444 1680143715444, 1680-14-371-5444 - SUPPORT CDE VOL LAC - 1680143715444
  • 1680-14-371-5460 1680143715460, 1680-14-371-5460 - GUIDE,COMMANDE - 1680143715460
  • 1680-14-371-5461 1680143715461, 1680-14-371-5461 - GUIDE,COMMANDE - 1680143715461
  • 1680-14-371-5466 1680143715466, 1680-14-371-5466 - SUPPORT - 1680143715466
  • 1680-14-371-5467 1680143715467, 1680-14-371-5467 - SUPPORT SERVO-CDE - 1680143715467
  • 1680-14-371-5468 1680143715468, 1680-14-371-5468 - BUTEE DE COMMANDE - 1680143715468
  • 1680-14-371-5469 1680143715469, 1680-14-371-5469 - LEVIER COUDE - 1680143715469
  • 1680-14-371-5470 1680143715470, 1680-14-371-5470 - LEVIER COUDE - 1680143715470
  • 1680-14-371-5471 1680143715471, 1680-14-371-5471 - BALAI BROSSE - 1680143715471
  • 1680-14-371-5472 1680143715472, 1680-14-371-5472 - GUIDE DE BIELLE - 1680143715472
  • 1680-14-371-5473 1680143715473, 1680-14-371-5473 - LEVIER COUDE - 1680143715473
  • 1680-14-371-5476 1680143715476, 1680-14-371-5476 - TUBE - 1680143715476
  • 1680-14-371-5477 1680143715477, 1680-14-371-5477 - LEVIER,COMMANDE A D - 1680143715477
  • 1680-14-371-5560 1680143715560, 1680-14-371-5560 - BELL CRANK - 1680143715560
  • 1680-14-371-5564 1680143715564, 1680-14-371-5564 - MOULURE,METALLIQUE - 1680143715564
  • 1680-14-371-5568 1680143715568, 1680-14-371-5568 - TRANSMISSION,MECANI - 1680143715568
  • 1680-14-371-5569 1680143715569, 1680-14-371-5569 - TRANSMISSION,MECANI - 1680143715569
  • 1680-14-371-5884 1680143715884, 1680-14-371-5884 - CAPOT DE CONTACTEUR - 1680143715884
  • 1680-14-371-5887 1680143715887, 1680-14-371-5887 - BOITIER ESSAI,SERVO - 1680143715887
  • 1680-14-371-5938 1680143715938, 1680-14-371-5938 - CAPSULE ANEROIDE - 1680143715938
  • 1680-14-371-5942 1680143715942, 1680-14-371-5942 - ACTIONNEUR,ELECTROM - 1680143715942
  • 1680-14-371-5944 1680143715944, 1680-14-371-5944 - FILTER,AIRCRAFT INSTRUMENTS - 1680143715944
  • 1680-14-371-5986 1680143715986, 1680-14-371-5986 - ARBRE DE COMMANDE - 1680143715986
  • 1680-14-371-5988 1680143715988, 1680-14-371-5988 - SAC OBTURATEURS,NU - 1680143715988
  • 1680-14-371-5989 1680143715989, 1680-14-371-5989 - OBTURATE,VENTILATIO - 1680143715989
  • 1680-14-371-5991 1680143715991, 1680-14-371-5991 - OBTU,SORT VIDE-VITE - 1680143715991
  • 1680-14-371-5992 1680143715992, 1680-14-371-5992 - OBTUR,ECOPE NACELLE - 1680143715992
  • 1680-14-371-5993 1680143715993, 1680-14-371-5993 - SAC OBTURATEURS,NU - 1680143715993
  • 1680-14-371-5994 1680143715994, 1680-14-371-5994 - OBTURATEUR,DRAINAGE - 1680143715994
  • 1680-14-371-6020 1680143716020, 1680-14-371-6020 - COMMANDE POUSSER/TI - 1680143716020
  • 1680-14-371-6256 1680143716256, 1680-14-371-6256 - LEVIER,COMMANDE A D - 1680143716256
  • 1680-14-371-6257 1680143716257, 1680-14-371-6257 - LEVIER,COMMANDE A D - 1680143716257
  • 1680-14-371-6258 1680143716258, 1680-14-371-6258 - SIEGE EJECT S ENSEM - 1680143716258
  • 1680-14-371-6262 1680143716262, 1680-14-371-6262 - SIEGE EJECT S ENSEM - 1680143716262
  • 1680-14-371-6264 1680143716264, 1680-14-371-6264 - TUBE TELESCOPIQUE - 1680143716264
  • 1680-14-371-6265 1680143716265, 1680-14-371-6265 - POIGNEE MISE A FEU - 1680143716265
  • 1680-14-371-6273 1680143716273, 1680-14-371-6273 - MODULE BOITIER TETE - 1680143716273
  • 1680-14-371-6274 1680143716274, 1680-14-371-6274 - MODULE BOITIER TETE - 1680143716274
  • 1680-14-371-6275 1680143716275, 1680-14-371-6275 - BOITIER DE TETE - 1680143716275
  • 1680-14-371-6276 1680143716276, 1680-14-371-6276 - INITIATEUR MOT FUSE - 1680143716276
  • 1680-14-371-6287 1680143716287, 1680-14-371-6287 - TUBE TELESCOPIQUE - 1680143716287
  • 1680-14-371-6290 1680143716290, 1680-14-371-6290 - TUBE DE COUPLE - 1680143716290
  • 1680-14-371-6306 1680143716306, 1680-14-371-6306 - TUBE TELESCOPIQUE - 1680143716306
  • 1680-14-371-6307 1680143716307, 1680-14-371-6307 - BOITIER DE VERROU - 1680143716307
  • 1680-14-371-6315 1680143716315, 1680-14-371-6315 - BUTEE DE REGLAGE - 1680143716315
  • 1680-14-371-6324 1680143716324, 1680-14-371-6324 - TUBE TELESCOPIQUE - 1680143716324
  • 1680-14-371-6325 1680143716325, 1680-14-371-6325 - INITIATEUR MISE FEU - 1680143716325
  • 1680-14-371-6341 1680143716341, 1680-14-371-6341 - TUBE COUPLE EQUIPE - 1680143716341
  • 1680-14-371-6346 1680143716346, 1680-14-371-6346 - BARRE DE COUPLE - 1680143716346
  • 1680-14-371-6349 1680143716349, 1680-14-371-6349 - ENSEMBLE VERROU - 1680143716349
  • 1680-14-371-6354 1680143716354, 1680-14-371-6354 - PATIN SUPERIEUR - 1680143716354
  • 1680-14-371-6355 1680143716355, 1680-14-371-6355 - PATIN INFERIEUR - 1680143716355
  • 1680-14-371-6359 1680143716359, 1680-14-371-6359 - PATIN CENTRAL - 1680143716359
  • 1680-14-371-6360 1680143716360, 1680-14-371-6360 - ENSEMBLE SECURITES - 1680143716360
  • 1680-14-371-7538 1680143717538, 1680-14-371-7538 - SUPPORT DETECT INCE - 1680143717538
  • 1680-14-371-7693 1680143717693, 1680-14-371-7693 - FERRURE VERROUIL,EQ - 1680143717693
  • 1680-14-371-9368 1680143719368, 1680-14-371-9368 - FILTRE,A AIR,INSTRU - 1680143719368
  • 1680-14-371-9810 1680143719810, 1680-14-371-9810 - FLASQUE PROTECTEUR - 1680143719810
  • 1680-14-372-4600 1680143724600, 1680-14-372-4600 - MOQUETTE,AERONEF - 1680143724600
  • 1680-14-372-6967 1680143726967, 1680-14-372-6967 - COFFRE POUR BATTERI - 1680143726967
  • 1680-14-372-6971 1680143726971, 1680-14-372-6971 - VERROUILLAG,POIGNEE - 1680143726971
  • 1680-14-372-6986 1680143726986, 1680-14-372-6986 - FOURCHETTE,EQUIPEE - 1680143726986
  • 1680-14-372-7000 1680143727000, 1680-14-372-7000 - POIGNEE,CDE,VERRIER - 1680143727000
  • 1680-14-372-7001 1680143727001, 1680-14-372-7001 - VERROUILLAG,POIGNEE - 1680143727001
  • 1680-14-372-7002 1680143727002, 1680-14-372-7002 - VERROUILLAG,POIGNEE - 1680143727002
  • 1680-14-372-7058 1680143727058, 1680-14-372-7058 - TIGE,PISTON,BOITE - 1680143727058
  • 1680-14-372-7059 1680143727059, 1680-14-372-7059 - BOITE RESSOR,ELEMEN - 1680143727059
  • 1680-14-372-7133 1680143727133, 1680-14-372-7133 - CONTROL STICK,AIRCRAFT - 1680143727133
  • 1680-14-372-7134 1680143727134, 1680-14-372-7134 - CONTROL STICK,AIRCRAFT - 1680143727134
  • 1680-14-372-7135 1680143727135, 1680-14-372-7135 - SOUFFLET,PROTECTION - 1680143727135
  • 1680-14-372-7136 1680143727136, 1680-14-372-7136 - SOUFFLET,PROTECTION - 1680143727136
  • 1680-14-372-7151 1680143727151, 1680-14-372-7151 - COUVRE-PEDALE - 1680143727151
  • 1680-14-372-7161 1680143727161, 1680-14-372-7161 - CARTER,EQUIPE - 1680143727161
  • 1680-14-372-7163 1680143727163, 1680-14-372-7163 - BASCULEUR,EQUIPE - 1680143727163
  • 1680-14-372-7164 1680143727164, 1680-14-372-7164 - VERROU,EQUIPE - 1680143727164
  • 1680-14-372-7166 1680143727166, 1680-14-372-7166 - BOITIER,PROTECTEUR - 1680143727166
  • 1680-14-372-7169 1680143727169, 1680-14-372-7169 - VERIN,AMORTISSEUR - 1680143727169
  • 1680-14-372-7170 1680143727170, 1680-14-372-7170 - VERIN,AMORTISSEUR - 1680143727170
  • 1680-14-372-7200 1680143727200, 1680-14-372-7200 - ENSEMBLE DE COMMAND - 1680143727200
  • 1680-14-372-7222 1680143727222, 1680-14-372-7222 - SIEGE,RESSORT DE CO - 1680143727222
  • 1680-14-372-7223 1680143727223, 1680-14-372-7223 - SIEGE,RESSORT DE CO - 1680143727223
  • 1680-14-372-7224 1680143727224, 1680-14-372-7224 - SIEGE,RESSORT DE CO - 1680143727224
  • 1680-14-372-7225 1680143727225, 1680-14-372-7225 - SIEGE,RESSORT DE CO - 1680143727225
  • 1680-14-372-7226 1680143727226, 1680-14-372-7226 - SIEGE,RESSORT DE CO - 1680143727226
  • 1680-14-372-7227 1680143727227, 1680-14-372-7227 - SIEGE,RESSORT DE CO - 1680143727227
  • 1680-14-372-7228 1680143727228, 1680-14-372-7228 - SIEGE,RESSORT DE CO - 1680143727228
  • 1680-14-372-7229 1680143727229, 1680-14-372-7229 - SIEGE,RESSORT DE CO - 1680143727229
  • 1680-14-372-7230 1680143727230, 1680-14-372-7230 - COUVERCLE D'ACCES - 1680143727230
  • 1680-14-372-7231 1680143727231, 1680-14-372-7231 - COUVERCLE D'ACCES - 1680143727231
  • 1680-14-372-7232 1680143727232, 1680-14-372-7232 - COUVERCLE D'ACCES - 1680143727232
  • 1680-14-372-7233 1680143727233, 1680-14-372-7233 - EMBOUT,ENTRAINEUR - 1680143727233
  • 1680-14-372-7234 1680143727234, 1680-14-372-7234 - NOIX,ENTRAINEMENT - 1680143727234
  • 1680-14-372-7235 1680143727235, 1680-14-372-7235 - YOKE - 1680143727235
  • 1680-14-372-7236 1680143727236, 1680-14-372-7236 - NOIX,ENTRAINEMENT - 1680143727236
  • 1680-14-372-7237 1680143727237, 1680-14-372-7237 - THRUST,SHIFT - 1680143727237
  • 1680-14-372-7242 1680143727242, 1680-14-372-7242 - POINTEAU,ROBINET A - 1680143727242
  • 1680-14-372-7252 1680143727252, 1680-14-372-7252 - CAGE DE RETENUE,RES - 1680143727252
  • 1680-14-372-7261 1680143727261, 1680-14-372-7261 - CAGE DE RETENUE,RES - 1680143727261
  • 1680-14-372-7262 1680143727262, 1680-14-372-7262 - CARTE IMPRIMEE,EQUI - 1680143727262
  • 1680-14-372-7263 1680143727263, 1680-14-372-7263 - CARTE IMPRIMEE,EQUI - 1680143727263
  • 1680-14-372-7264 1680143727264, 1680-14-372-7264 - CARTE IMPRIMEE,EQUI - 1680143727264
  • 1680-14-372-7265 1680143727265, 1680-14-372-7265 - PLATINE,EQUIPEMENT - 1680143727265
  • 1680-14-372-7266 1680143727266, 1680-14-372-7266 - PLATINE,EQUIPEMENT - 1680143727266
  • 1680-14-372-7267 1680143727267, 1680-14-372-7267 - PLATINE,EQUIPEMENT - 1680143727267
  • 1680-14-372-7269 1680143727269, 1680-14-372-7269 - SIEGE,RESSORT DE CO - 1680143727269
  • 1680-14-372-7270 1680143727270, 1680-14-372-7270 - SIEGE,RESSORT DE CO - 1680143727270
  • 1680-14-372-7271 1680143727271, 1680-14-372-7271 - SIEGE,RESSORT DE CO - 1680143727271
  • 1680-14-372-7272 1680143727272, 1680-14-372-7272 - SIEGE,RESSORT DE CO - 1680143727272
  • 1680-14-372-7274 1680143727274, 1680-14-372-7274 - BUTEE,EMBOUT - 1680143727274
  • 1680-14-372-7278 1680143727278, 1680-14-372-7278 - COUVERCLE D'ACCES - 1680143727278
  • 1680-14-372-7279 1680143727279, 1680-14-372-7279 - ECROU,MANOEUVRE - 1680143727279
  • 1680-14-372-7280 1680143727280, 1680-14-372-7280 - ECROU,MANOEUVRE - 1680143727280
  • 1680-14-372-7281 1680143727281, 1680-14-372-7281 - ECROU,MANOEUVRE - 1680143727281
  • 1680-14-372-7287 1680143727287, 1680-14-372-7287 - PALIER,PISTON - 1680143727287
  • 1680-14-372-7295 1680143727295, 1680-14-372-7295 - BASCULEUR,COMMUTATE - 1680143727295
  • 1680-14-372-7296 1680143727296, 1680-14-372-7296 - BASCULEUR,COMMUTATE - 1680143727296
  • 1680-14-372-7299 1680143727299, 1680-14-372-7299 - BOUCHON,FILTRE - 1680143727299
  • 1680-14-372-7305 1680143727305, 1680-14-372-7305 - MANCHON,PISTON - 1680143727305
  • 1680-14-372-7306 1680143727306, 1680-14-372-7306 - BARRE,TORSION - 1680143727306
  • 1680-14-372-7307 1680143727307, 1680-14-372-7307 - BOUCHON,GUIGNOL - 1680143727307
  • 1680-14-372-7308 1680143727308, 1680-14-372-7308 - PION,FIXATION - 1680143727308
  • 1680-14-372-7317 1680143727317, 1680-14-372-7317 - COULISSEAU,PISTON - 1680143727317
  • 1680-14-372-7318 1680143727318, 1680-14-372-7318 - COULISSEAU,PISTON - 1680143727318
  • 1680-14-372-7319 1680143727319, 1680-14-372-7319 - CACHE,ECROU - 1680143727319
  • 1680-14-372-7320 1680143727320, 1680-14-372-7320 - TUBE,TELESCOPIQUE - 1680143727320
  • 1680-14-372-7321 1680143727321, 1680-14-372-7321 - TUBE,TELESCOPIQUE - 1680143727321
  • 1680-14-372-7322 1680143727322, 1680-14-372-7322 - TUBE,TELESCOPIQUE - 1680143727322
  • 1680-14-372-7323 1680143727323, 1680-14-372-7323 - TUBE,TELESCOPIQUE - 1680143727323
  • 1680-14-372-7324 1680143727324, 1680-14-372-7324 - TUBE,TELESCOPIQUE - 1680143727324
  • 1680-14-372-7325 1680143727325, 1680-14-372-7325 - SUPPORT,TUYAUTERIE - 1680143727325
  • 1680-14-372-7326 1680143727326, 1680-14-372-7326 - SUPPORT,TUYAUTERIE - 1680143727326
  • 1680-14-372-7327 1680143727327, 1680-14-372-7327 - SUPPORT,TUYAUTERIE - 1680143727327
  • 1680-14-372-7328 1680143727328, 1680-14-372-7328 - SUPPORT,TUYAUTERIE - 1680143727328
  • 1680-14-372-7329 1680143727329, 1680-14-372-7329 - SUPPORT,TUYAUTERIE - 1680143727329
  • 1680-14-372-7330 1680143727330, 1680-14-372-7330 - SUPPORT,TUYAUTERIE - 1680143727330
  • 1680-14-372-7332 1680143727332, 1680-14-372-7332 - CORPS,ROBINET - 1680143727332
  • 1680-14-372-7341 1680143727341, 1680-14-372-7341 - PALIER,PISTON - 1680143727341
  • 1680-14-372-7386 1680143727386, 1680-14-372-7386 - CAM,CONTROL - 1680143727386
  • 1680-14-372-7390 1680143727390, 1680-14-372-7390 - MOULURE,METALLIQUE - 1680143727390
  • 1680-14-372-7391 1680143727391, 1680-14-372-7391 - MOLDING,METAL - 1680143727391
  • 1680-14-372-7602 1680143727602, 1680-14-372-7602 - BASCULEUR - 1680143727602
  • 1680-14-372-7616 1680143727616, 1680-14-372-7616 - POIDS,REGLAG,ROULEM - 1680143727616
  • 1680-14-372-7655 1680143727655, 1680-14-372-7655 - CABLE ELECTRIQUE EQ - 1680143727655
  • 1680-14-372-7670 1680143727670, 1680-14-372-7670 - ANNEAU DE HISSAGE - 1680143727670
  • 1680-14-372-7689 1680143727689, 1680-14-372-7689 - CAPSULE ANEROIDE - 1680143727689
  • 1680-14-372-7744 1680143727744, 1680-14-372-7744 - FILTRE,A AIR,INSTRU - 1680143727744
  • 1680-14-372-7801 1680143727801, 1680-14-372-7801 - COMMANDE POUSSER/TI - 1680143727801
  • 1680-14-372-7966 1680143727966, 1680-14-372-7966 - COUVERCLE D'ACCES - 1680143727966
  • 1680-14-372-7967 1680143727967, 1680-14-372-7967 - COUVERCLE D'ACCES - 1680143727967
  • 1680-14-372-7990 1680143727990, 1680-14-372-7990 - CAPOT,EQUIPE - 1680143727990
  • 1680-14-372-7994 1680143727994, 1680-14-372-7994 - BUTTON STOP - 1680143727994
  • 1680-14-372-7996 1680143727996, 1680-14-372-7996 - FLASQUE,PREFORME - 1680143727996
  • 1680-14-372-7997 1680143727997, 1680-14-372-7997 - SUPPORT,TUYAUTERIE - 1680143727997
  • 1680-14-372-7998 1680143727998, 1680-14-372-7998 - SUPPORT,TUYAUTERIE - 1680143727998
  • 1680-14-372-7999 1680143727999, 1680-14-372-7999 - SUPPORT,TUYAUTERIE - 1680143727999
  • 1680-14-372-8000 1680143728000, 1680-14-372-8000 - SUPPORT,TUYAUTERIE - 1680143728000
  • 1680-14-372-8001 1680143728001, 1680-14-372-8001 - SUPPORT,TUYAUTERIE - 1680143728001
  • 1680-14-372-8002 1680143728002, 1680-14-372-8002 - SUPPORT,TUYAUTERIE - 1680143728002
  • 1680-14-372-8005 1680143728005, 1680-14-372-8005 - PATTE D'ANCRAGE - 1680143728005
  • 1680-14-372-8006 1680143728006, 1680-14-372-8006 - PATTE D'ANCRAGE - 1680143728006
  • 1680-14-372-8013 1680143728013, 1680-14-372-8013 - ACTUATOR SHIELD - 1680143728013
  • 1680-14-372-8014 1680143728014, 1680-14-372-8014 - ACTUATOR SHIELD - 1680143728014
  • 1680-14-372-8015 1680143728015, 1680-14-372-8015 - ACTUATOR SHIELD - 1680143728015
  • 1680-14-372-8016 1680143728016, 1680-14-372-8016 - ACTUATOR SHIELD - 1680143728016
  • 1680-14-372-8027 1680143728027, 1680-14-372-8027 - PALIER,VERIN - 1680143728027
  • 1680-14-373-0272 1680143730272, 1680-14-373-0272 - CACHE,INSTRUM BORD - 1680143730272
  • 1680-14-373-0275 1680143730275, 1680-14-373-0275 - LEVIER,COMMANDE A D - 1680143730275
  • 1680-14-373-0291 1680143730291, 1680-14-373-0291 - MONTAGE TREUIL SAUV - 1680143730291
  • 1680-14-373-0296 1680143730296, 1680-14-373-0296 - TAPIS,DE SOL - 1680143730296
  • 1680-14-373-0480 1680143730480, 1680-14-373-0480 - TREUIL,AERONEF - 1680143730480
  • 1680-14-373-1075 1680143731075, 1680-14-373-1075 - BOITIER,MANCH AERON - 1680143731075
  • 1680-14-373-1150 1680143731150, 1680-14-373-1150 - BRAS,ESSUIE-GLACE - 1680143731150
  • 1680-14-373-2306 1680143732306, 1680-14-373-2306 - POIGNEE,CDE,VERRIER - 1680143732306
  • 1680-14-373-2399 1680143732399, 1680-14-373-2399 - CHASSIS,RECOPIE MAC - 1680143732399
  • 1680-14-373-2431 1680143732431, 1680-14-373-2431 - CHASSIS,RECOPIE MAC - 1680143732431
  • 1680-14-373-2449 1680143732449, 1680-14-373-2449 - COMMANDE POUSSER/TI - 1680143732449
  • 1680-14-373-2450 1680143732450, 1680-14-373-2450 - COMMANDE POUSSER/TI - 1680143732450
  • 1680-14-373-2451 1680143732451, 1680-14-373-2451 - COMMANDE POUSSER/TI - 1680143732451
  • 1680-14-373-2472 1680143732472, 1680-14-373-2472 - COFFRET,AIDE PILOTA - 1680143732472
  • 1680-14-373-2474 1680143732474, 1680-14-373-2474 - BOITIER ESSAI,SERVO - 1680143732474
  • 1680-14-373-2756 1680143732756, 1680-14-373-2756 - SUPP,COMMANDE ROTOR - 1680143732756
  • 1680-14-373-2767 1680143732767, 1680-14-373-2767 - COVER,ACCESS - 1680143732767
  • 1680-14-373-2799 1680143732799, 1680-14-373-2799 - TABLEAU,INDICATEUR - 1680143732799
  • 1680-14-373-2804 1680143732804, 1680-14-373-2804 - SIEGE,AERONEF - 1680143732804
  • 1680-14-373-2837 1680143732837, 1680-14-373-2837 - ARBRE DE CONJUGAISO - 1680143732837
  • 1680-14-373-3012 1680143733012, 1680-14-373-3012 - LEVIER COUDE - 1680143733012
  • 1680-14-373-3013 1680143733013, 1680-14-373-3013 - LEVIER COUDE - 1680143733013
  • 1680-14-373-3040 1680143733040, 1680-14-373-3040 - LIGHT,WARNING - 1680143733040
  • 1680-14-373-3068 1680143733068, 1680-14-373-3068 - PROTECTION,CARENAGE - 1680143733068
  • 1680-14-373-3074 1680143733074, 1680-14-373-3074 - GUIGNOL,EQUIPE - 1680143733074
  • 1680-14-373-3089 1680143733089, 1680-14-373-3089 - SUPPORT,TUYAUTERIE - 1680143733089
  • 1680-14-373-3090 1680143733090, 1680-14-373-3090 - BOITE,RECOPIE - 1680143733090
  • 1680-14-373-3091 1680143733091, 1680-14-373-3091 - BOITE,RECOPIE - 1680143733091
  • 1680-14-373-3181 1680143733181, 1680-14-373-3181 - SEAT,AIRCRAFT - 1680143733181
  • 1680-14-373-3182 1680143733182, 1680-14-373-3182 - SEAT,AIRCRAFT - 1680143733182
  • 1680-14-373-4242 1680143734242, 1680-14-373-4242 - CACHE PORTE-CHAPEAU - 1680143734242
  • 1680-14-373-4244 1680143734244, 1680-14-373-4244 - AMORTISSEUR - 1680143734244
  • 1680-14-373-4258 1680143734258, 1680-14-373-4258 - CENDRIER DE SOUTE - 1680143734258
  • 1680-14-373-4319 1680143734319, 1680-14-373-4319 - POIGNEE EQUIPEE MAN - 1680143734319
  • 1680-14-373-4414 1680143734414, 1680-14-373-4414 - NOIX ENSEMBLE BIELL - 1680143734414
  • 1680-14-373-7007 1680143737007, 1680-14-373-7007 - AMORTISSEUR,ROTATIF - 1680143737007
  • 1680-14-373-7015 1680143737015, 1680-14-373-7015 - CORNIERE DATTACHE - 1680143737015
  • 1680-14-373-7086 1680143737086, 1680-14-373-7086 - MOULURE,METALLIQUE - 1680143737086
  • 1680-14-373-7087 1680143737087, 1680-14-373-7087 - MOULURE,METALLIQUE - 1680143737087
  • 1680-14-373-7088 1680143737088, 1680-14-373-7088 - MOULURE,METALLIQUE - 1680143737088
  • 1680-14-373-7089 1680143737089, 1680-14-373-7089 - MOULURE,METALLIQUE - 1680143737089
  • 1680-14-373-7090 1680143737090, 1680-14-373-7090 - MOULURE,METALLIQUE - 1680143737090
  • 1680-14-373-7091 1680143737091, 1680-14-373-7091 - MOULURE,METALLIQUE - 1680143737091
  • 1680-14-373-7092 1680143737092, 1680-14-373-7092 - MOULURE,METALLIQUE - 1680143737092
  • 1680-14-373-7093 1680143737093, 1680-14-373-7093 - MOULURE,METALLIQUE - 1680143737093
  • 1680-14-373-7102 1680143737102, 1680-14-373-7102 - CONTROL STICK,AIRCRAFT - 1680143737102
  • 1680-14-373-7104 1680143737104, 1680-14-373-7104 - LEVIER,COMMANDE A D - 1680143737104
  • 1680-14-373-7106 1680143737106, 1680-14-373-7106 - TUBE JOINT - 1680143737106
  • 1680-14-373-7108 1680143737108, 1680-14-373-7108 - SUPPORT - 1680143737108
  • 1680-14-373-7109 1680143737109, 1680-14-373-7109 - GUIDE BIELLE - 1680143737109
  • 1680-14-373-7110 1680143737110, 1680-14-373-7110 - ARM PEDAL EQUIPEMEN - 1680143737110
  • 1680-14-373-7111 1680143737111, 1680-14-373-7111 - ARM ASSY PEDAL - 1680143737111
  • 1680-14-373-7115 1680143737115, 1680-14-373-7115 - SUPPORT HANDLE - 1680143737115
  • 1680-14-373-7139 1680143737139, 1680-14-373-7139 - PROPELLER SHAFT - 1680143737139
  • 1680-14-373-7142 1680143737142, 1680-14-373-7142 - BOUCHON,VIDAN HUILE - 1680143737142
  • 1680-14-373-7143 1680143737143, 1680-14-373-7143 - SUPPORT - 1680143737143
  • 1680-14-373-7146 1680143737146, 1680-14-373-7146 - COL DE REMPLISSAGE, - 1680143737146
  • 1680-14-373-7150 1680143737150, 1680-14-373-7150 - FERRURE,TABLEAU BOR - 1680143737150
  • 1680-14-373-7153 1680143737153, 1680-14-373-7153 - COUVERCLE D'ACCES - 1680143737153
  • 1680-14-373-7166 1680143737166, 1680-14-373-7166 - VE AR ARTICU ELASTI - 1680143737166
  • 1680-14-373-7167 1680143737167, 1680-14-373-7167 - VE AV ARTICU ELASTI - 1680143737167
  • 1680-14-373-7168 1680143737168, 1680-14-373-7168 - VE AR DE BTP - 1680143737168
  • 1680-14-373-7466 1680143737466, 1680-14-373-7466 - PLAQUET,INDICATRICE - 1680143737466
  • 1680-14-373-7467 1680143737467, 1680-14-373-7467 - STRUCTURE,BOITIER - 1680143737467
  • 1680-14-373-7468 1680143737468, 1680-14-373-7468 - PALONNIER,SIEGE PIL - 1680143737468
  • 1680-14-373-7469 1680143737469, 1680-14-373-7469 - BLOC PEDALES PILOTE - 1680143737469
  • 1680-14-373-7470 1680143737470, 1680-14-373-7470 - FERRURE,FIX TREUIL - 1680143737470
  • 1680-14-373-7484 1680143737484, 1680-14-373-7484 - AMORTISSEUR,EQUIPE - 1680143737484
  • 1680-14-373-7492 1680143737492, 1680-14-373-7492 - FERRURE A OEIL - 1680143737492
  • 1680-14-373-7494 1680143737494, 1680-14-373-7494 - PART MOBILE,FLOTTAB - 1680143737494
  • 1680-14-373-7555 1680143737555, 1680-14-373-7555 - FILTRE,A AIR,INSTRU - 1680143737555
  • 1680-14-373-7572 1680143737572, 1680-14-373-7572 - MANCHE,AERONEF - 1680143737572
  • 1680-14-373-7756 1680143737756, 1680-14-373-7756 - PANNEAU,ARMOIRE RAD - 1680143737756
  • 1680-14-373-7758 1680143737758, 1680-14-373-7758 - PLAQUE DECLAIRAGE - 1680143737758
  • 1680-14-373-7860 1680143737860, 1680-14-373-7860 - COMMANDE POUSSER/TI - 1680143737860
  • 1680-14-374-0667 1680143740667, 1680-14-374-0667 - TABLEAU,INDICATEUR - 1680143740667
  • 1680-14-374-0671 1680143740671, 1680-14-374-0671 - ATTACHE DE SECURITE - 1680143740671
  • 1680-14-374-0734 1680143740734, 1680-14-374-0734 - CABLE ELECTRIQUE EQ - 1680143740734
  • 1680-14-374-0737 1680143740737, 1680-14-374-0737 - PLAQUE OBTURATRICE - 1680143740737
  • 1680-14-374-0738 1680143740738, 1680-14-374-0738 - BOITIER,ALARM SONOR - 1680143740738
  • 1680-14-374-0741 1680143740741, 1680-14-374-0741 - FERRURE EN U,EQUIP - 1680143740741
  • 1680-14-374-0742 1680143740742, 1680-14-374-0742 - SANGLE,TEXTILE - 1680143740742
  • 1680-14-374-0743 1680143740743, 1680-14-374-0743 - CACHE COMPAS - 1680143740743
  • 1680-14-374-0744 1680143740744, 1680-14-374-0744 - PLAQUETTE DECLAIRAG - 1680143740744
  • 1680-14-374-1070 1680143741070, 1680-14-374-1070 - HARN SECURIT,PILOTE - 1680143741070
  • 1680-14-374-1390 1680143741390, 1680-14-374-1390 - ACTIONNEUR,ELECTROM - 1680143741390
  • 1680-14-374-1406 1680143741406, 1680-14-374-1406 - FILTRE,A AIR,INSTRU - 1680143741406
  • 1680-14-374-1407 1680143741407, 1680-14-374-1407 - FILTRE,A AIR,INSTRU - 1680143741407
  • 1680-14-374-1449 1680143741449, 1680-14-374-1449 - DRIVER - 1680143741449
  • 1680-14-374-1453 1680143741453, 1680-14-374-1453 - HANDLE - 1680143741453
  • 1680-14-374-1454 1680143741454, 1680-14-374-1454 - TIRETTE,COMMANDE - 1680143741454
  • 1680-14-374-1470 1680143741470, 1680-14-374-1470 - BLADE,WINDSHIELD WIPER - 1680143741470
  • 1680-14-374-1714 1680143741714, 1680-14-374-1714 - SYSTEME DE COMMANDE - 1680143741714
  • 1680-14-374-1731 1680143741731, 1680-14-374-1731 - SUPPORT FILTRE ANTI - 1680143741731
  • 1680-14-374-1732 1680143741732, 1680-14-374-1732 - SUPPORT FILTRE ANTI - 1680143741732
  • 1680-14-374-1757 1680143741757, 1680-14-374-1757 - SEAT ACTUATOR FAN - 1680143741757
  • 1680-14-374-1768 1680143741768, 1680-14-374-1768 - SUPPORT - 1680143741768
  • 1680-14-374-2103 1680143742103, 1680-14-374-2103 - PANNEAU AMOVIBLE - 1680143742103
  • 1680-14-374-2104 1680143742104, 1680-14-374-2104 - ENSEMBLE CAPOTE - 1680143742104
  • 1680-14-374-2177 1680143742177, 1680-14-374-2177 - NACELLE,AERONEF - 1680143742177
  • 1680-14-374-2179 1680143742179, 1680-14-374-2179 - COMMANDE POUSSER/TI - 1680143742179
  • 1680-14-374-2575 1680143742575, 1680-14-374-2575 - SOUFFLET,PROTECTION - 1680143742575
  • 1680-14-374-2639 1680143742639, 1680-14-374-2639 - PANNEAU,INSONORISAT - 1680143742639
  • 1680-14-374-2640 1680143742640, 1680-14-374-2640 - PANNEAU,INSONORISAT - 1680143742640
  • 1680-14-374-2641 1680143742641, 1680-14-374-2641 - PANNEAU,INSONORISAT - 1680143742641
  • 1680-14-374-2642 1680143742642, 1680-14-374-2642 - PANNEAU,INSONORISAT - 1680143742642
  • 1680-14-374-2643 1680143742643, 1680-14-374-2643 - PANNEAU,INSONORISAT - 1680143742643
  • 1680-14-374-2644 1680143742644, 1680-14-374-2644 - PANNEAU,INSONORISAT - 1680143742644
  • 1680-14-374-2645 1680143742645, 1680-14-374-2645 - PANNEAU,INSONORISAT - 1680143742645
  • 1680-14-374-2646 1680143742646, 1680-14-374-2646 - PANNEAU,INSONORISAT - 1680143742646
  • 1680-14-374-2647 1680143742647, 1680-14-374-2647 - PANNEAU,INSONORISAT - 1680143742647
  • 1680-14-374-2648 1680143742648, 1680-14-374-2648 - PANNEAU,INSONORISAT - 1680143742648
  • 1680-14-374-2649 1680143742649, 1680-14-374-2649 - PANNEAU,INSONORISAT - 1680143742649
  • 1680-14-374-2650 1680143742650, 1680-14-374-2650 - PANNEAU,INSONORISAT - 1680143742650
  • 1680-14-374-2651 1680143742651, 1680-14-374-2651 - PANNEAU,INSONORISAT - 1680143742651
  • 1680-14-374-2652 1680143742652, 1680-14-374-2652 - PANNEAU,INSONORISAT - 1680143742652
  • 1680-14-374-2653 1680143742653, 1680-14-374-2653 - PANNEAU,INSONORISAT - 1680143742653
  • 1680-14-374-2654 1680143742654, 1680-14-374-2654 - PANNEAU,INSONORISAT - 1680143742654
  • 1680-14-374-2655 1680143742655, 1680-14-374-2655 - PANNEAU,INSONORISAT - 1680143742655
  • 1680-14-374-2656 1680143742656, 1680-14-374-2656 - PANNEAU,INSONORISAT - 1680143742656
  • 1680-14-374-2657 1680143742657, 1680-14-374-2657 - PANNEAU,INSONORISAT - 1680143742657
  • 1680-14-374-2658 1680143742658, 1680-14-374-2658 - PANNEAU,INSONORISAT - 1680143742658
  • 1680-14-374-2659 1680143742659, 1680-14-374-2659 - PANNEAU,INSONORISAT - 1680143742659
  • 1680-14-374-2660 1680143742660, 1680-14-374-2660 - PANNEAU,INSONORISAT - 1680143742660
  • 1680-14-374-2661 1680143742661, 1680-14-374-2661 - PANNEAU,INSONORISAT - 1680143742661
  • 1680-14-374-2662 1680143742662, 1680-14-374-2662 - PANNEAU,INSONORISAT - 1680143742662
  • 1680-14-374-2663 1680143742663, 1680-14-374-2663 - PANNEAU,INSONORISAT - 1680143742663
  • 1680-14-374-2664 1680143742664, 1680-14-374-2664 - PANNEAU,INSONORISAT - 1680143742664
  • 1680-14-374-2665 1680143742665, 1680-14-374-2665 - PANNEAU,INSONORISAT - 1680143742665
  • 1680-14-374-2666 1680143742666, 1680-14-374-2666 - SUPPORT DE TAPIS - 1680143742666
  • 1680-14-374-2667 1680143742667, 1680-14-374-2667 - SUPPORT DE TAPIS - 1680143742667
  • 1680-14-374-2668 1680143742668, 1680-14-374-2668 - HOUSSE,SIEGE AERONE - 1680143742668
  • 1680-14-374-2669 1680143742669, 1680-14-374-2669 - HOUSSE,SIEGE AERONE - 1680143742669
  • 1680-14-374-3146 1680143743146, 1680-14-374-3146 - TUYAUTERIE DRAINAGE - 1680143743146
  • 1680-14-374-3147 1680143743147, 1680-14-374-3147 - GOUTTIERE DRAINAGE - 1680143743147
  • 1680-14-374-3925 1680143743925, 1680-14-374-3925 - BOITE EQUI TREUIL - 1680143743925
  • 1680-14-374-3927 1680143743927, 1680-14-374-3927 - RAIL,ACCESSOIRES D' - 1680143743927
  • 1680-14-374-7181 1680143747181, 1680-14-374-7181 - SUPPORT COMBINATEUR - 1680143747181
  • 1680-14-374-7216 1680143747216, 1680-14-374-7216 - WEIGHT BALANCE - 1680143747216
  • 1680-14-374-7217 1680143747217, 1680-14-374-7217 - WEIGHT BALANCE - 1680143747217
  • 1680-14-374-7219 1680143747219, 1680-14-374-7219 - LEVER,REMOTE CONTROL - 1680143747219
  • 1680-14-374-7220 1680143747220, 1680-14-374-7220 - GUIDE,ROD - 1680143747220
  • 1680-14-374-7221 1680143747221, 1680-14-374-7221 - PEDALE DE COMMANDE - 1680143747221
  • 1680-14-374-7224 1680143747224, 1680-14-374-7224 - BELL CRANK - 1680143747224
  • 1680-14-374-7227 1680143747227, 1680-14-374-7227 - MOLDING,METAL - 1680143747227
  • 1680-14-374-7230 1680143747230, 1680-14-374-7230 - LEVIER,COMMANDE A D - 1680143747230
  • 1680-14-374-7231 1680143747231, 1680-14-374-7231 - BELLOWS,PROTECTION - 1680143747231
  • 1680-14-374-7232 1680143747232, 1680-14-374-7232 - LEVER,REMOTE CONTROL - 1680143747232
  • 1680-14-374-7239 1680143747239, 1680-14-374-7239 - ARBRE COMBINAT EQUI - 1680143747239
  • 1680-14-374-7241 1680143747241, 1680-14-374-7241 - BUTEE TANGAGE COLLE - 1680143747241
  • 1680-14-374-7254 1680143747254, 1680-14-374-7254 - SUPPORT - 1680143747254
  • 1680-14-374-7255 1680143747255, 1680-14-374-7255 - ARBRE COMBINAT EQUI - 1680143747255
  • 1680-14-374-7256 1680143747256, 1680-14-374-7256 - SUPPORT CDE VOL - 1680143747256
  • 1680-14-374-7257 1680143747257, 1680-14-374-7257 - TOLE DETANCHEITE - 1680143747257
  • 1680-14-374-7300 1680143747300, 1680-14-374-7300 - BOITE,COMMANDE - 1680143747300
  • 1680-14-374-7301 1680143747301, 1680-14-374-7301 - BOITE,COMMANDE - 1680143747301
  • 1680-14-374-7302 1680143747302, 1680-14-374-7302 - BOITE,COMMANDE - 1680143747302
  • 1680-14-374-7305 1680143747305, 1680-14-374-7305 - BOITE,COMMANDE - 1680143747305
  • 1680-14-374-7317 1680143747317, 1680-14-374-7317 - COMMANDE POUSSER/TI - 1680143747317
  • 1680-14-374-7318 1680143747318, 1680-14-374-7318 - COMMANDE POUSSER/TI - 1680143747318
  • 1680-14-374-7319 1680143747319, 1680-14-374-7319 - COMMANDE POUSSER/TI - 1680143747319
  • 1680-14-374-7320 1680143747320, 1680-14-374-7320 - MOTO-REDUCTEUR - 1680143747320
  • 1680-14-374-7321 1680143747321, 1680-14-374-7321 - MOTO-REDUCTEUR - 1680143747321
  • 1680-14-374-7322 1680143747322, 1680-14-374-7322 - VERIN,BEC BORD ATTA - 1680143747322
  • 1680-14-374-7323 1680143747323, 1680-14-374-7323 - VERIN,BEC BORD ATTA - 1680143747323
  • 1680-14-374-7324 1680143747324, 1680-14-374-7324 - VERIN,BEC BORD ATTA - 1680143747324
  • 1680-14-374-7325 1680143747325, 1680-14-374-7325 - VERIN,BEC BORD ATTA - 1680143747325
  • 1680-14-374-7328 1680143747328, 1680-14-374-7328 - SYSTEME,REACTION AR - 1680143747328
  • 1680-14-374-7329 1680143747329, 1680-14-374-7329 - SYSTEME,REACTION AR - 1680143747329
  • 1680-14-374-7429 1680143747429, 1680-14-374-7429 - RACCORD,SIEGE AVION - 1680143747429
  • 1680-14-374-7430 1680143747430, 1680-14-374-7430 - RACCORD,SIEGE AVION - 1680143747430
  • 1680-14-374-7516 1680143747516, 1680-14-374-7516 - BOITIER,VERIN TRIM - 1680143747516
  • 1680-14-374-7530 1680143747530, 1680-14-374-7530 - ADAPTATEUR,CONDUIT - 1680143747530
  • 1680-14-374-7570 1680143747570, 1680-14-374-7570 - SYSTEME,REACTION AR - 1680143747570
  • 1680-14-374-7580 1680143747580, 1680-14-374-7580 - RELAIS,ACCESSOIRE - 1680143747580
  • 1680-14-374-7661 1680143747661, 1680-14-374-7661 - SEAT TACHOMETER - 1680143747661
  • 1680-14-374-7739 1680143747739, 1680-14-374-7739 - LEVIER,COMMANDE A D - 1680143747739
  • 1680-14-374-7740 1680143747740, 1680-14-374-7740 - LEVIER,COMMANDE A D - 1680143747740
  • 1680-14-374-7741 1680143747741, 1680-14-374-7741 - LEVIER,COMMANDE A D - 1680143747741
  • 1680-14-374-7742 1680143747742, 1680-14-374-7742 - LEVIER,COMMANDE A D - 1680143747742
  • 1680-14-374-9881 1680143749881, 1680-14-374-9881 - LEVIER,COMMANDE A D - 1680143749881
  • 1680-14-374-9882 1680143749882, 1680-14-374-9882 - LEVIER,COMMANDE A D - 1680143749882
  • 1680-14-374-9966 1680143749966, 1680-14-374-9966 - LEVIER,COMMANDE A D - 1680143749966
  • 1680-14-375-0054 1680143750054, 1680-14-375-0054 - LEVIER,COMMANDE A D - 1680143750054
  • 1680-14-375-1719 1680143751719, 1680-14-375-1719 - FERRURE SUP,TREUIL - 1680143751719
  • 1680-14-375-3815 1680143753815, 1680-14-375-3815 - GRILLE DAERATION - 1680143753815
  • 1680-14-375-3817 1680143753817, 1680-14-375-3817 - PANNEAU DECLAIRAGE - 1680143753817
  • 1680-14-375-3818 1680143753818, 1680-14-375-3818 - FOURCHE,JOINT UNIVE - 1680143753818
  • 1680-14-375-3949 1680143753949, 1680-14-375-3949 - COMMANDE POUSSER/TI - 1680143753949
  • 1680-14-375-3950 1680143753950, 1680-14-375-3950 - COMMANDE POUSSER/TI - 1680143753950
  • 1680-14-375-3951 1680143753951, 1680-14-375-3951 - COMMANDE POUSSER/TI - 1680143753951
  • 1680-14-375-3956 1680143753956, 1680-14-375-3956 - BLINDAGE ANTI DCA - 1680143753956
  • 1680-14-375-3957 1680143753957, 1680-14-375-3957 - DOUILLE,BIELLE,EQUI - 1680143753957
  • 1680-14-375-3963 1680143753963, 1680-14-375-3963 - COMMANDE POUSSER/TI - 1680143753963
  • 1680-14-375-3964 1680143753964, 1680-14-375-3964 - COMMANDE POUSSER/TI - 1680143753964
  • 1680-14-375-3965 1680143753965, 1680-14-375-3965 - COMMANDE POUSSER/TI - 1680143753965
  • 1680-14-375-3966 1680143753966, 1680-14-375-3966 - COMMANDE POUSSER/TI - 1680143753966
  • 1680-14-375-3967 1680143753967, 1680-14-375-3967 - COMMANDE POUSSER/TI - 1680143753967
  • 1680-14-375-3969 1680143753969, 1680-14-375-3969 - EMBOUT D'ETANCHEITE - 1680143753969
  • 1680-14-375-4003 1680143754003, 1680-14-375-4003 - BOITE DE DISTRIBUTI - 1680143754003
  • 1680-14-375-4015 1680143754015, 1680-14-375-4015 - DESACCOUPLEMENT,COM - 1680143754015
  • 1680-14-375-4265 1680143754265, 1680-14-375-4265 - MANCHE,AERONEF - 1680143754265
  • 1680-14-375-4272 1680143754272, 1680-14-375-4272 - SUPPORT DE POIGNEE - 1680143754272
  • 1680-14-375-4303 1680143754303, 1680-14-375-4303 - OBTURATEUR HUBLOT - 1680143754303
  • 1680-14-375-4304 1680143754304, 1680-14-375-4304 - OBTURATEUR HUBLOT - 1680143754304
  • 1680-14-375-4305 1680143754305, 1680-14-375-4305 - CACHE HUBLOT AR - 1680143754305
  • 1680-14-375-4496 1680143754496, 1680-14-375-4496 - CEINTURE DE SECURIT - 1680143754496
  • 1680-14-375-4533 1680143754533, 1680-14-375-4533 - LEVIER,COMMANDE A D - 1680143754533
  • 1680-14-375-4534 1680143754534, 1680-14-375-4534 - COMMANDE POUSSER/TI - 1680143754534
  • 1680-14-375-4535 1680143754535, 1680-14-375-4535 - SUPPORT - 1680143754535
  • 1680-14-375-4536 1680143754536, 1680-14-375-4536 - SUPPORT - 1680143754536
  • 1680-14-375-4552 1680143754552, 1680-14-375-4552 - COVER,DUST - 1680143754552
  • 1680-14-375-4556 1680143754556, 1680-14-375-4556 - SUPPORT VALVE EQUIP - 1680143754556
  • 1680-14-375-4557 1680143754557, 1680-14-375-4557 - SUPPORT VALVE - 1680143754557
  • 1680-14-375-4562 1680143754562, 1680-14-375-4562 - LEVIER,COMMANDE A D - 1680143754562
  • 1680-14-375-4565 1680143754565, 1680-14-375-4565 - COMMANDE POUSSER/TI - 1680143754565
  • 1680-14-375-4582 1680143754582, 1680-14-375-4582 - RACCORD,SIEGE AVION - 1680143754582
  • 1680-14-375-4611 1680143754611, 1680-14-375-4611 - PLAQUE INTERMEDIAIR - 1680143754611
  • 1680-14-375-4617 1680143754617, 1680-14-375-4617 - SANGLE,TEXTILE - 1680143754617
  • 1680-14-375-4618 1680143754618, 1680-14-375-4618 - SANGLE,TEXTILE - 1680143754618
  • 1680-14-375-4619 1680143754619, 1680-14-375-4619 - SANGLE,TEXTILE - 1680143754619
  • 1680-14-375-4622 1680143754622, 1680-14-375-4622 - SIEGE EJECTABLE,AER - 1680143754622
  • 1680-14-375-4623 1680143754623, 1680-14-375-4623 - SIEGE EJECTABLE,AER - 1680143754623
  • 1680-14-375-4627 1680143754627, 1680-14-375-4627 - REVETEMENT SIEGE - 1680143754627
  • 1680-14-375-4630 1680143754630, 1680-14-375-4630 - APPUI-TETE SIEGE - 1680143754630
  • 1680-14-375-4631 1680143754631, 1680-14-375-4631 - POUTRE DROITE - 1680143754631
  • 1680-14-375-4642 1680143754642, 1680-14-375-4642 - BRISE VERRIERE - 1680143754642
  • 1680-14-375-4643 1680143754643, 1680-14-375-4643 - BRISE VERRIERE - 1680143754643
  • 1680-14-375-4652 1680143754652, 1680-14-375-4652 - SIEGE EJECTABLE,AER - 1680143754652
  • 1680-14-375-4658 1680143754658, 1680-14-375-4658 - CABLE,TRANSMISSION - 1680143754658
  • 1680-14-375-4659 1680143754659, 1680-14-375-4659 - CABLE,TRANSMISSION - 1680143754659
  • 1680-14-375-4667 1680143754667, 1680-14-375-4667 - SIEGE EJECTABLE,AER - 1680143754667
  • 1680-14-375-4668 1680143754668, 1680-14-375-4668 - SIEGE EJECTABLE,AER - 1680143754668
  • 1680-14-375-4669 1680143754669, 1680-14-375-4669 - CORDE DETACHABLE - 1680143754669
  • 1680-14-375-4720 1680143754720, 1680-14-375-4720 - LEVIER,COMMANDE A M - 1680143754720
  • 1680-14-375-4721 1680143754721, 1680-14-375-4721 - LEVIER,COMMANDE A D - 1680143754721
  • 1680-14-375-4744 1680143754744, 1680-14-375-4744 - TABLEAU,VOYANTS REP - 1680143754744
  • 1680-14-375-4745 1680143754745, 1680-14-375-4745 - CONTRE-PLAQUE - 1680143754745
  • 1680-14-375-4746 1680143754746, 1680-14-375-4746 - TABLEAU LUMINEUX - 1680143754746
  • 1680-14-375-4748 1680143754748, 1680-14-375-4748 - TABLEAU LUMINEUX - 1680143754748
  • 1680-14-375-4809 1680143754809, 1680-14-375-4809 - LEVIER COUDE - 1680143754809
  • 1680-14-375-4810 1680143754810, 1680-14-375-4810 - LEVIER COUDE - 1680143754810
  • 1680-14-375-4811 1680143754811, 1680-14-375-4811 - LEVIER COUDE - 1680143754811
  • 1680-14-375-4812 1680143754812, 1680-14-375-4812 - LEVIER COUDE - 1680143754812
  • 1680-14-375-4813 1680143754813, 1680-14-375-4813 - LEVIER COUDE - 1680143754813
  • 1680-14-375-4814 1680143754814, 1680-14-375-4814 - LEVIER COUDE - 1680143754814
  • 1680-14-375-4815 1680143754815, 1680-14-375-4815 - LEVIER COUDE - 1680143754815
  • 1680-14-375-4816 1680143754816, 1680-14-375-4816 - LEVIER COUDE - 1680143754816
  • 1680-14-375-4856 1680143754856, 1680-14-375-4856 - AXE,VERIN - 1680143754856
  • 1680-14-375-4863 1680143754863, 1680-14-375-4863 - CHARIOT,CDE AEROFRE - 1680143754863
  • 1680-14-375-4868 1680143754868, 1680-14-375-4868 - PATIN,GUIDAGE - 1680143754868
  • 1680-14-375-4982 1680143754982, 1680-14-375-4982 - MOULURE,METALLIQUE - 1680143754982
  • 1680-14-375-4983 1680143754983, 1680-14-375-4983 - MOULURE,METALLIQUE - 1680143754983
  • 1680-14-375-4984 1680143754984, 1680-14-375-4984 - MOULURE,METALLIQUE - 1680143754984
  • 1680-14-375-4985 1680143754985, 1680-14-375-4985 - MOULURE,METALLIQUE - 1680143754985
  • 1680-14-375-5480 1680143755480, 1680-14-375-5480 - SIEGE,AERONEF - 1680143755480
  • 1680-14-375-6489 1680143756489, 1680-14-375-6489 - DETECTEUR D INCENDI - 1680143756489
  • 1680-14-375-7586 1680143757586, 1680-14-375-7586 - SUPT,CDE FRAGILISAT - 1680143757586
  • 1680-14-375-7666 1680143757666, 1680-14-375-7666 - SUPPORT,CDE SOUPLE - 1680143757666
  • 1680-14-375-7777 1680143757777, 1680-14-375-7777 - DEMI-COLL DE FRICTI - 1680143757777
  • 1680-14-375-7778 1680143757778, 1680-14-375-7778 - DEMI-COLL DE FRICTI - 1680143757778
  • 1680-14-375-7779 1680143757779, 1680-14-375-7779 - ENS SUPPORT FUSEES - 1680143757779
  • 1680-14-375-7780 1680143757780, 1680-14-375-7780 - SUPPORT,FUSEES ECLA - 1680143757780
  • 1680-14-375-7781 1680143757781, 1680-14-375-7781 - GLISSIERE,FUSEES EC - 1680143757781
  • 1680-14-375-7816 1680143757816, 1680-14-375-7816 - SUPPORT EQUIP,FUSEE - 1680143757816
  • 1680-14-375-7817 1680143757817, 1680-14-375-7817 - COUVERCLE D'ACCES - 1680143757817
  • 1680-14-375-7818 1680143757818, 1680-14-375-7818 - SUPPORT EQUIP FUSEE - 1680143757818
  • 1680-14-375-7934 1680143757934, 1680-14-375-7934 - SANGLE,TEXTILE - 1680143757934
  • 1680-14-375-7935 1680143757935, 1680-14-375-7935 - SUPP EQUIPE,TREUIL - 1680143757935
  • 1680-14-376-0214 1680143760214, 1680-14-376-0214 - LEVIER,COMMANDE A D - 1680143760214
  • 1680-14-376-0226 1680143760226, 1680-14-376-0226 - SUPPORT CDE DE TRIM - 1680143760226
  • 1680-14-376-0228 1680143760228, 1680-14-376-0228 - SUPPORT PEDALE DROI - 1680143760228
  • 1680-14-376-0229 1680143760229, 1680-14-376-0229 - SUPPORT - 1680143760229
  • 1680-14-376-0230 1680143760230, 1680-14-376-0230 - SUPPORT DE MASSES - 1680143760230
  • 1680-14-376-0231 1680143760231, 1680-14-376-0231 - MANCHE,AERONEF - 1680143760231
  • 1680-14-376-0304 1680143760304, 1680-14-376-0304 - ESSUIE-GLACE,EQUIPE - 1680143760304
  • 1680-14-376-0305 1680143760305, 1680-14-376-0305 - ESSUIE-GLACE,EQUIPE - 1680143760305
  • 1680-14-376-0306 1680143760306, 1680-14-376-0306 - ESSUIE-GLACE,EQUIPE - 1680143760306
  • 1680-14-376-0307 1680143760307, 1680-14-376-0307 - ESSUIE-GLANCE,EQUIP - 1680143760307
  • 1680-14-376-0335 1680143760335, 1680-14-376-0335 - LEVER CONTROL - 1680143760335
  • 1680-14-376-0339 1680143760339, 1680-14-376-0339 - FILTRE,A AIR,INSTRU - 1680143760339
  • 1680-14-376-0372 1680143760372, 1680-14-376-0372 - CREPINE ASPIRATION - 1680143760372
REQUEST QUOTE for 1680-14-370-4157
*
*

*
*
*




 
Top